Appleton, Washington
Current Conditions -  °F | °C
As of 12:53 AM on Saturday 20 Dec 2014 (Local Time) from KDLS Reporting Station
Haze Haze  
Wind Chill: 40°   Ceiling: 6500
Heat Index: 40°   Visibility: 6mi
Dew Point: 38°   Wind: 0mph
Humidity: 93%   Direction: NA
Pressure: 29.95"   Gusts: NA
Location:  45.81°N, 121.27°W
Report Text: KDLS 200853Z AUTO 00000KT 6SM BR BKN065 OVC085 04/03 A2995 RMK AO2 SLP142 60000 T00440033 58013
Loading
Personal Weather Stations






























Interactive Weather Map New forecast layout! Learn more

10-Day Weather Forecast

Advertisements
Track Severe Weather on mobile